sensor_id;sensor_type;location;lat;lon;timestamp;P1;P2;P0
61804;PMS7003;47725;47.912;7.356;2023-11-18T00:01:33;12.32;10.42;
61804;PMS7003;47725;47.912;7.356;2023-11-18T00:05:33;12.32;10.42;
61804;PMS7003;47725;47.912;7.356;2023-11-18T00:09:33;12.33;11.38;
61804;PMS7003;47725;47.912;7.356;2023-11-18T00:13:33;12.33;11.38;
61804;PMS7003;47725;47.912;7.356;2023-11-18T00:17:33;12.33;11.38;
61804;PMS7003;47725;47.912;7.356;2023-11-18T00:21:33;9.46;8.52;
61804;PMS7003;47725;47.912;7.356;2023-11-18T00:25:33;9.46;8.52;
61804;PMS7003;47725;47.912;7.356;2023-11-18T00:29:33;8.52;7.57;
61804;PMS7003;47725;47.912;7.356;2023-11-18T00:33:33;8.52;7.57;
61804;PMS7003;47725;47.912;7.356;2023-11-18T00:37:33;8.52;7.57;
61804;PMS7003;47725;47.912;7.356;2023-11-18T00:41:33;12.31;7.58;
61804;PMS7003;47725;47.912;7.356;2023-11-18T00:45:33;12.31;7.58;
61804;PMS7003;47725;47.912;7.356;2023-11-18T00:49:33;9.46;9.46;
61804;PMS7003;47725;47.912;7.356;2023-11-18T00:53:33;9.46;9.46;
61804;PMS7003;47725;47.912;7.356;2023-11-18T00:57:33;9.46;9.46;
61804;PMS7003;47725;47.912;7.356;2023-11-18T01:01:33;10.40;10.40;
61804;PMS7003;47725;47.912;7.356;2023-11-18T01:05:33;10.40;10.40;
61804;PMS7003;47725;47.912;7.356;2023-11-18T01:09:33;8.51;8.51;
61804;PMS7003;47725;47.912;7.356;2023-11-18T01:13:33;8.51;8.51;
61804;PMS7003;47725;47.912;7.356;2023-11-18T01:17:33;8.51;8.51;
61804;PMS7003;47725;47.912;7.356;2023-11-18T01:21:33;16.04;14.15;
61804;PMS7003;47725;47.912;7.356;2023-11-18T01:25:33;16.04;14.15;
61804;PMS7003;47725;47.912;7.356;2023-11-18T01:29:33;16.96;16.96;
61804;PMS7003;47725;47.912;7.356;2023-11-18T01:33:33;16.96;16.96;
61804;PMS7003;47725;47.912;7.356;2023-11-18T01:37:33;16.96;16.96;
61804;PMS7003;47725;47.912;7.356;2023-11-18T01:41:33;16.93;15.04;
61804;PMS7003;47725;47.912;7.356;2023-11-18T01:45:33;16.93;15.04;
61804;PMS7003;47725;47.912;7.356;2023-11-18T01:49:34;14.09;12.21;
61804;PMS7003;47725;47.912;7.356;2023-11-18T01:53:34;14.09;12.21;
61804;PMS7003;47725;47.912;7.356;2023-11-18T01:57:33;14.09;12.21;
61804;PMS7003;47725;47.912;7.356;2023-11-18T02:01:33;16.92;15.98;
61804;PMS7003;47725;47.912;7.356;2023-11-18T02:05:33;16.92;15.98;
61804;PMS7003;47725;47.912;7.356;2023-11-18T02:09:33;13.18;13.18;
61804;PMS7003;47725;47.912;7.356;2023-11-18T02:13:34;13.18;13.18;
61804;PMS7003;47725;47.912;7.356;2023-11-18T02:17:33;13.18;13.18;
61804;PMS7003;47725;47.912;7.356;2023-11-18T02:21:33;15.05;12.23;
61804;PMS7003;47725;47.912;7.356;2023-11-18T02:25:33;15.05;12.23;
61804;PMS7003;47725;47.912;7.356;2023-11-18T02:29:34;17.86;14.10;
61804;PMS7003;47725;47.912;7.356;2023-11-18T02:33:39;17.86;14.10;
61804;PMS7003;47725;47.912;7.356;2023-11-18T02:37:33;17.86;14.10;
61804;PMS7003;47725;47.912;7.356;2023-11-18T02:41:34;14.04;14.04;
61804;PMS7003;47725;47.912;7.356;2023-11-18T02:45:33;14.04;14.04;
61804;PMS7003;47725;47.912;7.356;2023-11-18T02:49:35;16.90;13.14;
61804;PMS7003;47725;47.912;7.356;2023-11-18T02:53:33;16.90;13.14;
61804;PMS7003;47725;47.912;7.356;2023-11-18T02:57:33;16.90;13.14;
61804;PMS7003;47725;47.912;7.356;2023-11-18T03:01:33;24.47;14.11;
61804;PMS7003;47725;47.912;7.356;2023-11-18T03:05:33;24.47;14.11;
61804;PMS7003;47725;47.912;7.356;2023-11-18T03:09:33;13.17;13.17;
61804;PMS7003;47725;47.912;7.356;2023-11-18T03:13:33;13.17;13.17;
61804;PMS7003;47725;47.912;7.356;2023-11-18T03:17:33;13.17;13.17;
61804;PMS7003;47725;47.912;7.356;2023-11-18T03:21:33;16.91;14.09;
61804;PMS7003;47725;47.912;7.356;2023-11-18T03:25:33;16.91;14.09;
61804;PMS7003;47725;47.912;7.356;2023-11-18T03:29:33;14.09;14.09;
61804;PMS7003;47725;47.912;7.356;2023-11-18T03:33:33;14.09;14.09;
61804;PMS7003;47725;47.912;7.356;2023-11-18T03:37:33;14.09;14.09;
61804;PMS7003;47725;47.912;7.356;2023-11-18T03:41:33;17.84;13.14;
61804;PMS7003;47725;47.912;7.356;2023-11-18T03:45:33;17.84;13.14;
61804;PMS7003;47725;47.912;7.356;2023-11-18T03:49:33;15.04;13.16;
61804;PMS7003;47725;47.912;7.356;2023-11-18T03:53:33;15.04;13.16;
61804;PMS7003;47725;47.912;7.356;2023-11-18T03:57:33;15.04;13.16;
61804;PMS7003;47725;47.912;7.356;2023-11-18T04:01:33;15.05;13.16;
61804;PMS7003;47725;47.912;7.356;2023-11-18T04:05:33;15.05;13.16;
61804;PMS7003;47725;47.912;7.356;2023-11-18T04:09:33;15.05;13.17;
61804;PMS7003;47725;47.912;7.356;2023-11-18T04:13:33;15.05;13.17;
61804;PMS7003;47725;47.912;7.356;2023-11-18T04:17:33;15.05;13.17;
61804;PMS7003;47725;47.912;7.356;2023-11-18T04:21:33;14.11;10.34;
61804;PMS7003;47725;47.912;7.356;2023-11-18T04:25:33;14.11;10.34;
61804;PMS7003;47725;47.912;7.356;2023-11-18T04:29:33;15.96;13.15;
61804;PMS7003;47725;47.912;7.356;2023-11-18T04:33:33;15.96;13.15;
61804;PMS7003;47725;47.912;7.356;2023-11-18T04:37:33;15.96;13.15;
61804;PMS7003;47725;47.912;7.356;2023-11-18T04:41:33;13.14;10.32;
61804;PMS7003;47725;47.912;7.356;2023-11-18T04:45:33;13.14;10.32;
61804;PMS7003;47725;47.912;7.356;2023-11-18T04:49:33;11.26;10.32;
61804;PMS7003;47725;47.912;7.356;2023-11-18T04:53:33;11.26;10.32;
61804;PMS7003;47725;47.912;7.356;2023-11-18T04:57:33;11.26;10.32;
61804;PMS7003;47725;47.912;7.356;2023-11-18T05:01:33;7.49;7.49;
61804;PMS7003;47725;47.912;7.356;2023-11-18T05:05:33;7.49;7.49;
61804;PMS7003;47725;47.912;7.356;2023-11-18T05:09:33;10.28;9.35;
61804;PMS7003;47725;47.912;7.356;2023-11-18T05:13:33;10.28;9.35;
61804;PMS7003;47725;47.912;7.356;2023-11-18T05:17:33;10.28;9.35;
61804;PMS7003;47725;47.912;7.356;2023-11-18T05:21:33;7.47;6.54;
61804;PMS7003;47725;47.912;7.356;2023-11-18T05:25:33;7.47;6.54;
61804;PMS7003;47725;47.912;7.356;2023-11-18T05:29:33;8.41;7.47;
61804;PMS7003;47725;47.912;7.356;2023-11-18T05:33:33;8.41;7.47;
61804;PMS7003;47725;47.912;7.356;2023-11-18T05:37:33;8.41;7.47;
61804;PMS7003;47725;47.912;7.356;2023-11-18T05:41:33;9.36;5.62;
61804;PMS7003;47725;47.912;7.356;2023-11-18T05:45:33;9.36;5.62;
61804;PMS7003;47725;47.912;7.356;2023-11-18T05:49:33;8.43;6.56;
61804;PMS7003;47725;47.912;7.356;2023-11-18T05:53:33;8.43;6.56;
61804;PMS7003;47725;47.912;7.356;2023-11-18T05:57:33;8.43;6.56;
61804;PMS7003;47725;47.912;7.356;2023-11-18T06:01:33;5.61;5.61;
61804;PMS7003;47725;47.912;7.356;2023-11-18T06:05:33;5.61;5.61;
61804;PMS7003;47725;47.912;7.356;2023-11-18T06:09:33;5.61;4.68;
61804;PMS7003;47725;47.912;7.356;2023-11-18T06:13:33;5.61;4.68;
61804;PMS7003;47725;47.912;7.356;2023-11-18T06:17:33;5.61;4.68;
61804;PMS7003;47725;47.912;7.356;2023-11-18T06:21:33;5.61;5.61;
61804;PMS7003;47725;47.912;7.356;2023-11-18T06:25:33;5.61;5.61;
61804;PMS7003;47725;47.912;7.356;2023-11-18T06:29:32;11.23;11.23;
61804;PMS7003;47725;47.912;7.356;2023-11-18T06:33:32;11.23;11.23;
61804;PMS7003;47725;47.912;7.356;2023-11-18T06:37:33;11.23;11.23;
61804;PMS7003;47725;47.912;7.356;2023-11-18T06:41:32;14.04;13.10;
61804;PMS7003;47725;47.912;7.356;2023-11-18T06:45:32;14.04;13.10;
61804;PMS7003;47725;47.912;7.356;2023-11-18T06:49:32;14.04;10.30;
61804;PMS7003;47725;47.912;7.356;2023-11-18T06:53:32;14.04;10.30;
61804;PMS7003;47725;47.912;7.356;2023-11-18T06:57:32;14.04;10.30;
61804;PMS7003;47725;47.912;7.356;2023-11-18T07:01:33;10.32;10.32;
61804;PMS7003;47725;47.912;7.356;2023-11-18T07:05:32;10.32;10.32;
61804;PMS7003;47725;47.912;7.356;2023-11-18T07:09:32;9.38;8.44;
61804;PMS7003;47725;47.912;7.356;2023-11-18T07:13:32;9.38;8.44;
61804;PMS7003;47725;47.912;7.356;2023-11-18T07:17:32;9.38;8.44;
61804;PMS7003;47725;47.912;7.356;2023-11-18T07:21:33;9.39;9.39;
61804;PMS7003;47725;47.912;7.356;2023-11-18T07:25:32;9.39;9.39;
61804;PMS7003;47725;47.912;7.356;2023-11-18T07:29:32;9.38;9.38;
61804;PMS7003;47725;47.912;7.356;2023-11-18T07:33:32;9.38;9.38;
61804;PMS7003;47725;47.912;7.356;2023-11-18T07:37:32;9.38;9.38;
61804;PMS7003;47725;47.912;7.356;2023-11-18T07:41:32;11.28;9.40;
61804;PMS7003;47725;47.912;7.356;2023-11-18T07:45:35;11.28;9.40;
61804;PMS7003;47725;47.912;7.356;2023-11-18T07:49:35;13.15;10.33;
61804;PMS7003;47725;47.912;7.356;2023-11-18T07:53:32;13.15;10.33;
61804;PMS7003;47725;47.912;7.356;2023-11-18T07:57:32;13.15;10.33;
61804;PMS7003;47725;47.912;7.356;2023-11-18T08:01:32;11.27;9.39;
61804;PMS7003;47725;47.912;7.356;2023-11-18T08:05:32;11.27;9.39;
61804;PMS7003;47725;47.912;7.356;2023-11-18T08:09:32;23.50;17.86;
61804;PMS7003;47725;47.912;7.356;2023-11-18T08:13:32;23.50;17.86;
61804;PMS7003;47725;47.912;7.356;2023-11-18T08:17:32;23.50;17.86;
61804;PMS7003;47725;47.912;7.356;2023-11-18T08:21:32;16.00;15.06;
61804;PMS7003;47725;47.912;7.356;2023-11-18T08:25:32;16.00;15.06;
61804;PMS7003;47725;47.912;7.356;2023-11-18T08:29:32;10.34;9.40;
61804;PMS7003;47725;47.912;7.356;2023-11-18T08:33:32;10.34;9.40;
61804;PMS7003;47725;47.912;7.356;2023-11-18T08:37:33;10.34;9.40;
61804;PMS7003;47725;47.912;7.356;2023-11-18T08:41:32;7.51;7.51;
61804;PMS7003;47725;47.912;7.356;2023-11-18T08:45:32;7.51;7.51;
61804;PMS7003;47725;47.912;7.356;2023-11-18T08:49:32;9.39;9.39;
61804;PMS7003;47725;47.912;7.356;2023-11-18T08:53:32;9.39;9.39;
61804;PMS7003;47725;47.912;7.356;2023-11-18T08:57:32;9.39;9.39;
61804;PMS7003;47725;47.912;7.356;2023-11-18T09:01:32;5.65;5.65;
61804;PMS7003;47725;47.912;7.356;2023-11-18T09:05:32;5.65;5.65;
61804;PMS7003;47725;47.912;7.356;2023-11-18T09:09:32;8.47;8.47;
61804;PMS7003;47725;47.912;7.356;2023-11-18T09:13:33;8.47;8.47;
61804;PMS7003;47725;47.912;7.356;2023-11-18T09:17:32;8.47;8.47;
61804;PMS7003;47725;47.912;7.356;2023-11-18T09:21:33;18.83;13.18;
61804;PMS7003;47725;47.912;7.356;2023-11-18T09:25:32;18.83;13.18;
61804;PMS7003;47725;47.912;7.356;2023-11-18T09:29:32;11.31;8.48;
61804;PMS7003;47725;47.912;7.356;2023-11-18T09:33:33;11.31;8.48;
61804;PMS7003;47725;47.912;7.356;2023-11-18T09:37:32;11.31;8.48;
61804;PMS7003;47725;47.912;7.356;2023-11-18T09:41:32;14.14;12.25;
61804;PMS7003;47725;47.912;7.356;2023-11-18T09:45:32;14.14;12.25;
61804;PMS7003;47725;47.912;7.356;2023-11-18T09:49:32;6.62;3.78;
61804;PMS7003;47725;47.912;7.356;2023-11-18T09:53:32;6.62;3.78;
61804;PMS7003;47725;47.912;7.356;2023-11-18T09:57:33;6.62;3.78;
61804;PMS7003;47725;47.912;7.356;2023-11-18T10:01:34;9.50;5.70;
61804;PMS7003;47725;47.912;7.356;2023-11-18T10:05:32;9.50;5.70;
61804;PMS7003;47725;47.912;7.356;2023-11-18T10:09:32;4.76;4.76;
61804;PMS7003;47725;47.912;7.356;2023-11-18T10:13:32;4.76;4.76;
61804;PMS7003;47725;47.912;7.356;2023-11-18T10:17:32;4.76;4.76;
61804;PMS7003;47725;47.912;7.356;2023-11-18T10:21:35;6.69;4.78;
61804;PMS7003;47725;47.912;7.356;2023-11-18T10:25:32;6.69;4.78;
61804;PMS7003;47725;47.912;7.356;2023-11-18T10:29:32;9.54;8.59;
61804;PMS7003;47725;47.912;7.356;2023-11-18T10:33:36;9.54;8.59;
61804;PMS7003;47725;47.912;7.356;2023-11-18T10:37:32;9.54;8.59;
61804;PMS7003;47725;47.912;7.356;2023-11-18T10:41:32;3.83;3.83;
61804;PMS7003;47725;47.912;7.356;2023-11-18T10:45:32;3.83;3.83;
61804;PMS7003;47725;47.912;7.356;2023-11-18T10:49:32;3.83;3.83;
61804;PMS7003;47725;47.912;7.356;2023-11-18T10:53:32;3.83;3.83;
61804;PMS7003;47725;47.912;7.356;2023-11-18T10:57:32;3.83;3.83;
61804;PMS7003;47725;47.912;7.356;2023-11-18T11:01:36;5.76;4.80;
61804;PMS7003;47725;47.912;7.356;2023-11-18T11:05:32;5.76;4.80;
61804;PMS7003;47725;47.912;7.356;2023-11-18T11:09:32;4.80;2.88;
61804;PMS7003;47725;47.912;7.356;2023-11-18T11:13:32;4.80;2.88;
61804;PMS7003;47725;47.912;7.356;2023-11-18T11:17:32;4.80;2.88;
61804;PMS7003;47725;47.912;7.356;2023-11-18T11:21:32;8.65;4.80;
61804;PMS7003;47725;47.912;7.356;2023-11-18T11:25:42;8.65;4.80;
61804;PMS7003;47725;47.912;7.356;2023-11-18T11:29:36;9.60;9.60;
61804;PMS7003;47725;47.912;7.356;2023-11-18T11:33:33;9.60;9.60;
61804;PMS7003;47725;47.912;7.356;2023-11-18T11:37:32;9.60;9.60;
61804;PMS7003;47725;47.912;7.356;2023-11-18T11:41:32;5.77;5.77;
61804;PMS7003;47725;47.912;7.356;2023-11-18T11:45:32;5.77;5.77;
61804;PMS7003;47725;47.912;7.356;2023-11-18T11:49:35;5.76;5.76;
61804;PMS7003;47725;47.912;7.356;2023-11-18T11:53:35;5.76;5.76;
61804;PMS7003;47725;47.912;7.356;2023-11-18T11:57:32;5.76;5.76;
61804;PMS7003;47725;47.912;7.356;2023-11-18T12:01:35;7.68;7.68;
61804;PMS7003;47725;47.912;7.356;2023-11-18T12:05:32;7.68;7.68;
61804;PMS7003;47725;47.912;7.356;2023-11-18T12:09:32;7.68;7.68;
61804;PMS7003;47725;47.912;7.356;2023-11-18T12:13:32;7.68;7.68;
61804;PMS7003;47725;47.912;7.356;2023-11-18T12:17:32;7.68;7.68;
61804;PMS7003;47725;47.912;7.356;2023-11-18T12:25:32;7.66;7.66;
61804;PMS7003;47725;47.912;7.356;2023-11-18T12:29:32;12.47;9.59;
61804;PMS7003;47725;47.912;7.356;2023-11-18T12:41:35;9.57;6.70;
61804;PMS7003;47725;47.912;7.356;2023-11-18T12:45:41;9.57;6.70;
61804;PMS7003;47725;47.912;7.356;2023-11-18T12:49:32;10.52;8.61;
61804;PMS7003;47725;47.912;7.356;2023-11-18T12:53:32;10.52;8.61;
61804;PMS7003;47725;47.912;7.356;2023-11-18T12:57:32;10.52;8.61;
61804;PMS7003;47725;47.912;7.356;2023-11-18T13:01:32;7.64;7.64;
61804;PMS7003;47725;47.912;7.356;2023-11-18T13:05:32;7.64;7.64;
61804;PMS7003;47725;47.912;7.356;2023-11-18T13:09:32;10.49;10.49;
61804;PMS7003;47725;47.912;7.356;2023-11-18T13:13:35;10.49;10.49;
61804;PMS7003;47725;47.912;7.356;2023-11-18T13:17:32;10.49;10.49;
61804;PMS7003;47725;47.912;7.356;2023-11-18T13:21:33;8.59;8.59;
61804;PMS7003;47725;47.912;7.356;2023-11-18T13:25:32;8.59;8.59;
61804;PMS7003;47725;47.912;7.356;2023-11-18T13:29:32;10.48;9.53;
61804;PMS7003;47725;47.912;7.356;2023-11-18T13:33:32;10.48;9.53;
61804;PMS7003;47725;47.912;7.356;2023-11-18T13:37:32;10.48;9.53;
61804;PMS7003;47725;47.912;7.356;2023-11-18T13:41:32;12.39;9.53;
61804;PMS7003;47725;47.912;7.356;2023-11-18T13:45:32;12.39;9.53;
61804;PMS7003;47725;47.912;7.356;2023-11-18T13:49:32;14.29;11.43;
61804;PMS7003;47725;47.912;7.356;2023-11-18T13:53:32;14.29;11.43;
61804;PMS7003;47725;47.912;7.356;2023-11-18T13:57:32;14.29;11.43;
61804;PMS7003;47725;47.912;7.356;2023-11-18T14:01:32;9.54;9.54;
61804;PMS7003;47725;47.912;7.356;2023-11-18T14:05:34;9.54;9.54;
61804;PMS7003;47725;47.912;7.356;2023-11-18T14:09:32;11.46;7.64;
61804;PMS7003;47725;47.912;7.356;2023-11-18T14:13:32;11.46;7.64;
61804;PMS7003;47725;47.912;7.356;2023-11-18T14:17:32;11.46;7.64;
61804;PMS7003;47725;47.912;7.356;2023-11-18T14:21:32;6.69;6.69;
61804;PMS7003;47725;47.912;7.356;2023-11-18T14:25:32;6.69;6.69;
61804;PMS7003;47725;47.912;7.356;2023-11-18T14:29:32;10.53;10.53;
61804;PMS7003;47725;47.912;7.356;2023-11-18T14:33:32;10.53;10.53;
61804;PMS7003;47725;47.912;7.356;2023-11-18T14:37:32;10.53;10.53;
61804;PMS7003;47725;47.912;7.356;2023-11-18T14:41:32;7.66;7.66;
61804;PMS7003;47725;47.912;7.356;2023-11-18T14:45:32;7.66;7.66;
61804;PMS7003;47725;47.912;7.356;2023-11-18T14:49:32;10.53;7.66;
61804;PMS7003;47725;47.912;7.356;2023-11-18T14:53:32;10.53;7.66;
61804;PMS7003;47725;47.912;7.356;2023-11-18T14:57:32;10.53;7.66;
61804;PMS7003;47725;47.912;7.356;2023-11-18T15:01:32;7.65;7.65;
61804;PMS7003;47725;47.912;7.356;2023-11-18T15:05:32;7.65;7.65;
61804;PMS7003;47725;47.912;7.356;2023-11-18T15:09:32;8.63;8.63;
61804;PMS7003;47725;47.912;7.356;2023-11-18T15:13:32;8.63;8.63;
61804;PMS7003;47725;47.912;7.356;2023-11-18T15:17:32;8.63;8.63;
61804;PMS7003;47725;47.912;7.356;2023-11-18T15:21:32;6.71;6.71;
61804;PMS7003;47725;47.912;7.356;2023-11-18T15:25:32;6.71;6.71;
61804;PMS7003;47725;47.912;7.356;2023-11-18T15:29:32;15.35;14.39;
61804;PMS7003;47725;47.912;7.356;2023-11-18T15:33:32;15.35;14.39;
61804;PMS7003;47725;47.912;7.356;2023-11-18T15:37:32;15.35;14.39;
61804;PMS7003;47725;47.912;7.356;2023-11-18T15:41:32;18.21;15.34;
61804;PMS7003;47725;47.912;7.356;2023-11-18T15:45:32;18.21;15.34;
61804;PMS7003;47725;47.912;7.356;2023-11-18T15:49:32;16.28;13.41;
61804;PMS7003;47725;47.912;7.356;2023-11-18T15:53:32;16.28;13.41;
61804;PMS7003;47725;47.912;7.356;2023-11-18T15:57:32;16.28;13.41;
61804;PMS7003;47725;47.912;7.356;2023-11-18T16:01:32;15.33;14.37;
61804;PMS7003;47725;47.912;7.356;2023-11-18T16:05:32;15.33;14.37;
61804;PMS7003;47725;47.912;7.356;2023-11-18T16:09:32;14.36;12.44;
61804;PMS7003;47725;47.912;7.356;2023-11-18T16:13:32;14.36;12.44;
61804;PMS7003;47725;47.912;7.356;2023-11-18T16:17:32;14.36;12.44;
61804;PMS7003;47725;47.912;7.356;2023-11-18T16:21:32;12.44;12.44;
61804;PMS7003;47725;47.912;7.356;2023-11-18T16:25:32;12.44;12.44;
61804;PMS7003;47725;47.912;7.356;2023-11-18T16:29:32;9.55;7.64;
61804;PMS7003;47725;47.912;7.356;2023-11-18T16:33:32;9.55;7.64;
61804;PMS7003;47725;47.912;7.356;2023-11-18T16:37:32;9.55;7.64;
61804;PMS7003;47725;47.912;7.356;2023-11-18T16:41:32;9.56;9.56;
61804;PMS7003;47725;47.912;7.356;2023-11-18T16:45:32;9.56;9.56;
61804;PMS7003;47725;47.912;7.356;2023-11-18T16:49:32;9.55;9.55;
61804;PMS7003;47725;47.912;7.356;2023-11-18T16:53:32;9.55;9.55;
61804;PMS7003;47725;47.912;7.356;2023-11-18T16:57:32;9.55;9.55;
61804;PMS7003;47725;47.912;7.356;2023-11-18T17:01:32;12.42;10.51;
61804;PMS7003;47725;47.912;7.356;2023-11-18T17:05:32;12.42;10.51;
61804;PMS7003;47725;47.912;7.356;2023-11-18T17:09:32;13.40;13.40;
61804;PMS7003;47725;47.912;7.356;2023-11-18T17:13:32;13.40;13.40;
61804;PMS7003;47725;47.912;7.356;2023-11-18T17:17:32;13.40;13.40;
61804;PMS7003;47725;47.912;7.356;2023-11-18T17:21:32;13.43;11.51;
61804;PMS7003;47725;47.912;7.356;2023-11-18T17:25:32;13.43;11.51;
61804;PMS7003;47725;47.912;7.356;2023-11-18T17:29:32;11.53;10.57;
61804;PMS7003;47725;47.912;7.356;2023-11-18T17:33:32;11.53;10.57;
61804;PMS7003;47725;47.912;7.356;2023-11-18T17:37:32;11.53;10.57;
61804;PMS7003;47725;47.912;7.356;2023-11-18T17:41:32;15.34;12.46;
61804;PMS7003;47725;47.912;7.356;2023-11-18T17:45:32;15.34;12.46;
61804;PMS7003;47725;47.912;7.356;2023-11-18T17:49:32;12.44;12.44;
61804;PMS7003;47725;47.912;7.356;2023-11-18T17:53:32;12.44;12.44;
61804;PMS7003;47725;47.912;7.356;2023-11-18T17:57:32;12.44;12.44;
61804;PMS7003;47725;47.912;7.356;2023-11-18T18:01:32;15.28;14.33;
61804;PMS7003;47725;47.912;7.356;2023-11-18T18:05:32;15.28;14.33;
61804;PMS7003;47725;47.912;7.356;2023-11-18T18:09:32;14.30;12.40;
61804;PMS7003;47725;47.912;7.356;2023-11-18T18:13:32;14.30;12.40;
61804;PMS7003;47725;47.912;7.356;2023-11-18T18:17:32;14.30;12.40;
61804;PMS7003;47725;47.912;7.356;2023-11-18T18:21:32;5.79;3.86;
61804;PMS7003;47725;47.912;7.356;2023-11-18T18:25:32;5.79;3.86;
61804;PMS7003;47725;47.912;7.356;2023-11-18T18:29:32;2.90;2.90;
61804;PMS7003;47725;47.912;7.356;2023-11-18T18:33:32;2.90;2.90;
61804;PMS7003;47725;47.912;7.356;2023-11-18T18:37:32;2.90;2.90;
61804;PMS7003;47725;47.912;7.356;2023-11-18T18:41:32;4.80;4.80;
61804;PMS7003;47725;47.912;7.356;2023-11-18T18:45:32;4.80;4.80;
61804;PMS7003;47725;47.912;7.356;2023-11-18T18:49:32;12.45;6.70;
61804;PMS7003;47725;47.912;7.356;2023-11-18T18:53:31;12.45;6.70;
61804;PMS7003;47725;47.912;7.356;2023-11-18T18:57:32;12.45;6.70;
61804;PMS7003;47725;47.912;7.356;2023-11-18T19:01:31;5.73;5.73;
61804;PMS7003;47725;47.912;7.356;2023-11-18T19:05:31;5.73;5.73;
61804;PMS7003;47725;47.912;7.356;2023-11-18T19:09:31;7.61;6.65;
61804;PMS7003;47725;47.912;7.356;2023-11-18T19:13:31;7.61;6.65;
61804;PMS7003;47725;47.912;7.356;2023-11-18T19:17:31;7.61;6.65;
61804;PMS7003;47725;47.912;7.356;2023-11-18T19:21:31;3.79;3.79;
61804;PMS7003;47725;47.912;7.356;2023-11-18T19:25:31;3.79;3.79;
61804;PMS7003;47725;47.912;7.356;2023-11-18T19:29:31;2.84;2.84;
61804;PMS7003;47725;47.912;7.356;2023-11-18T19:33:31;2.84;2.84;
61804;PMS7003;47725;47.912;7.356;2023-11-18T19:37:31;2.84;2.84;
61804;PMS7003;47725;47.912;7.356;2023-11-18T19:41:31;2.84;2.84;
61804;PMS7003;47725;47.912;7.356;2023-11-18T19:45:31;2.84;2.84;
61804;PMS7003;47725;47.912;7.356;2023-11-18T19:49:32;5.66;2.83;
61804;PMS7003;47725;47.912;7.356;2023-11-18T19:53:31;5.66;2.83;
61804;PMS7003;47725;47.912;7.356;2023-11-18T19:57:31;5.66;2.83;
61804;PMS7003;47725;47.912;7.356;2023-11-18T20:01:31;3.77;3.77;
61804;PMS7003;47725;47.912;7.356;2023-11-18T20:05:31;3.77;3.77;
61804;PMS7003;47725;47.912;7.356;2023-11-18T20:09:31;4.67;3.73;
61804;PMS7003;47725;47.912;7.356;2023-11-18T20:13:31;4.67;3.73;
61804;PMS7003;47725;47.912;7.356;2023-11-18T20:17:31;4.67;3.73;
61804;PMS7003;47725;47.912;7.356;2023-11-18T20:21:31;3.72;3.72;
61804;PMS7003;47725;47.912;7.356;2023-11-18T20:25:31;3.72;3.72;
61804;PMS7003;47725;47.912;7.356;2023-11-18T20:29:31;5.55;5.55;
61804;PMS7003;47725;47.912;7.356;2023-11-18T20:33:31;5.55;5.55;
61804;PMS7003;47725;47.912;7.356;2023-11-18T20:37:31;5.55;5.55;
61804;PMS7003;47725;47.912;7.356;2023-11-18T20:41:31;6.48;4.63;
61804;PMS7003;47725;47.912;7.356;2023-11-18T20:45:31;6.48;4.63;
61804;PMS7003;47725;47.912;7.356;2023-11-18T20:49:31;9.22;5.53;
61804;PMS7003;47725;47.912;7.356;2023-11-18T20:53:31;9.22;5.53;
61804;PMS7003;47725;47.912;7.356;2023-11-18T20:57:31;9.22;5.53;
61804;PMS7003;47725;47.912;7.356;2023-11-18T21:01:31;7.39;5.54;
61804;PMS7003;47725;47.912;7.356;2023-11-18T21:05:31;7.39;5.54;
61804;PMS7003;47725;47.912;7.356;2023-11-18T21:09:31;3.68;3.68;
61804;PMS7003;47725;47.912;7.356;2023-11-18T21:13:31;3.68;3.68;
61804;PMS7003;47725;47.912;7.356;2023-11-18T21:17:31;3.68;3.68;
61804;PMS7003;47725;47.912;7.356;2023-11-18T21:21:31;2.76;2.76;
61804;PMS7003;47725;47.912;7.356;2023-11-18T21:25:31;2.76;2.76;
61804;PMS7003;47725;47.912;7.356;2023-11-18T21:29:31;6.45;3.68;
61804;PMS7003;47725;47.912;7.356;2023-11-18T21:33:31;6.45;3.68;
61804;PMS7003;47725;47.912;7.356;2023-11-18T21:37:31;6.45;3.68;
61804;PMS7003;47725;47.912;7.356;2023-11-18T21:41:31;4.61;3.69;
61804;PMS7003;47725;47.912;7.356;2023-11-18T21:45:31;4.61;3.69;
61804;PMS7003;47725;47.912;7.356;2023-11-18T21:49:31;4.61;4.61;
61804;PMS7003;47725;47.912;7.356;2023-11-18T21:53:31;4.61;4.61;
61804;PMS7003;47725;47.912;7.356;2023-11-18T21:57:31;4.61;4.61;
61804;PMS7003;47725;47.912;7.356;2023-11-18T22:01:31;3.68;3.68;
61804;PMS7003;47725;47.912;7.356;2023-11-18T22:05:31;3.68;3.68;
61804;PMS7003;47725;47.912;7.356;2023-11-18T22:09:31;11.07;7.38;
61804;PMS7003;47725;47.912;7.356;2023-11-18T22:13:31;11.07;7.38;
61804;PMS7003;47725;47.912;7.356;2023-11-18T22:17:31;11.07;7.38;
61804;PMS7003;47725;47.912;7.356;2023-11-18T22:21:31;4.60;4.60;
61804;PMS7003;47725;47.912;7.356;2023-11-18T22:25:31;4.60;4.60;
61804;PMS7003;47725;47.912;7.356;2023-11-18T22:29:31;7.40;6.48;
61804;PMS7003;47725;47.912;7.356;2023-11-18T22:33:31;7.40;6.48;
61804;PMS7003;47725;47.912;7.356;2023-11-18T22:37:31;7.40;6.48;
61804;PMS7003;47725;47.912;7.356;2023-11-18T22:41:31;4.61;4.61;
61804;PMS7003;47725;47.912;7.356;2023-11-18T22:45:31;4.61;4.61;
61804;PMS7003;47725;47.912;7.356;2023-11-18T22:49:31;5.52;4.60;
61804;PMS7003;47725;47.912;7.356;2023-11-18T22:53:31;5.52;4.60;
61804;PMS7003;47725;47.912;7.356;2023-11-18T22:57:32;5.52;4.60;
61804;PMS7003;47725;47.912;7.356;2023-11-18T23:01:31;3.68;3.68;
61804;PMS7003;47725;47.912;7.356;2023-11-18T23:05:34;3.68;3.68;
61804;PMS7003;47725;47.912;7.356;2023-11-18T23:09:31;3.67;3.67;
61804;PMS7003;47725;47.912;7.356;2023-11-18T23:13:31;3.67;3.67;
61804;PMS7003;47725;47.912;7.356;2023-11-18T23:17:31;3.67;3.67;
61804;PMS7003;47725;47.912;7.356;2023-11-18T23:21:31;5.50;4.58;
61804;PMS7003;47725;47.912;7.356;2023-11-18T23:25:31;5.50;4.58;
61804;PMS7003;47725;47.912;7.356;2023-11-18T23:29:31;3.68;3.68;
61804;PMS7003;47725;47.912;7.356;2023-11-18T23:33:31;3.68;3.68;
61804;PMS7003;47725;47.912;7.356;2023-11-18T23:37:31;3.68;3.68;
61804;PMS7003;47725;47.912;7.356;2023-11-18T23:41:31;4.60;4.60;
61804;PMS7003;47725;47.912;7.356;2023-11-18T23:45:31;4.60;4.60;
61804;PMS7003;47725;47.912;7.356;2023-11-18T23:49:31;6.44;6.44;
61804;PMS7003;47725;47.912;7.356;2023-11-18T23:53:31;6.44;6.44;
61804;PMS7003;47725;47.912;7.356;2023-11-18T23:57:31;6.44;6.44;
